Thunder radar more information blitzortung!


Radar de pluja more information rain snow radar


Visita la nostra xarxa de llocs de meteo:

Template documentation
and downloads

And another site



No particular awareness of the weather is required.    There are no Weather-warnings

Pagina Historial Weather Underground text

Diari Resum Juny 17, 2017 Unitats:  Imperial    Mètric   Tant
« Previous Dia
SegĂźent Dia »
Diari Setmana Mensual Anual Personalitzada
  Maxima: Minima: Media:
Temperatura: TemperatureC °F 21.3 °F 27.7 °F
Punt de rosada: DewpointC °F 15.2 °F 17.7 °F
Humitat: Humidity % 42 % 55 %
Wind Speed: WindSpeedKMH mph 0.0 mph 7.6 mph
RĂ fegues de vent: WindSpeedGustKMH mph - -
Vent:- - SE
Pression baro: PressurehPa in 1012.8 in -
Precipitacions: 0.0 in    
Historical Graphs
 
 
Dades de taula per Juny 17, 2017
Temps Temperatura Punt de rosada Pression baro Vent Wind Speed RĂ fegues de vent Humitat Rainfall Rate (Hourly)
TemperatureC °F DewpointC °F PressurehPa in Calm     Humidity % HourlyPrecipMM in
00:00 25.0 °F 15.3 °F 1017.8 in SW 4.2 mph 4.2 mph 55 % 0.0 in
00:05 24.9 °F 15.5 °F 1017.8 in SSW 3.7 mph 3.7 mph 56 % 0.0 in
00:15 22.6 °F 15.9 °F 1015.8 in Calm   1.6 mph 66 % 0.0 in
00:25 22.6 °F 15.9 °F 1015.8 in Calm   3.2 mph 66 % 0.0 in
00:35 22.5 °F 15.8 °F 1015.8 in NNW 1.6 mph 1.6 mph 66 % 0.0 in
00:45 22.5 °F 15.6 °F 1015.8 in NW 1.6 mph 3.2 mph 65 % 0.0 in
00:55 22.4 °F 15.7 °F 1015.8 in Calm   1.6 mph 66 % 0.0 in
01:05 22.3 °F 15.7 °F 1014.8 in North 1.6 mph 3.2 mph 66 % 0.0 in
01:15 22.3 °F 15.7 °F 1014.8 in Calm   1.6 mph 66 % 0.0 in
01:25 22.2 °F 15.6 °F 1015.8 in NNE 1.6 mph 3.2 mph 66 % 0.0 in
01:35 21.6 °F 15.4 °F 1015.8 in Calm     68 % 0.0 in
01:45 21.3 °F 15.4 °F 1015.8 in Calm   3.2 mph 69 % 0.0 in
02:00 21.6 °F 15.7 °F 1015.8 in Calm   1.6 mph 69 % 0.0 in
02:10 21.4 °F 15.2 °F 1015.8 in NW 1.6 mph 3.2 mph 68 % 0.0 in
02:20 21.6 °F 15.9 °F 1015.8 in Calm   1.6 mph 70 % 0.0 in
02:30 21.6 °F 15.7 °F 1015.8 in SW 1.6 mph 1.6 mph 69 % 0.0 in
02:40 22.0 °F 16.1 °F 1015.8 in SW 1.6 mph 3.2 mph 69 % 0.0 in
02:50 22.8 °F 16.6 °F 1015.8 in South 1.6 mph 1.6 mph 68 % 0.0 in
03:00 22.9 °F 16.4 °F 1015.8 in SSE 3.2 mph 3.2 mph 67 % 0.0 in
03:10 23.1 °F 16.4 °F 1015.8 in South 1.6 mph 4.8 mph 66 % 0.0 in
03:20 23.3 °F 16.3 °F 1015.8 in SW 1.6 mph 3.2 mph 65 % 0.0 in
03:30 23.5 °F 16.6 °F 1015.8 in SW 1.6 mph 3.2 mph 65 % 0.0 in
03:40 23.7 °F 16.5 °F 1015.8 in SW 1.6 mph 4.8 mph 64 % 0.0 in
03:50 24.3 °F 16.6 °F 1015.8 in SW 3.2 mph 3.2 mph 62 % 0.0 in
04:00 25.2 °F 17.2 °F 1015.8 in Calm   3.2 mph 61 % 0.0 in
04:10 26.2 °F 17.8 °F 1015.8 in NNW 1.6 mph 3.2 mph 60 % 0.0 in
04:20 26.4 °F 17.4 °F 1015.8 in NNE 4.8 mph 4.8 mph 58 % 0.0 in
04:30 27.1 °F 17.8 °F 1015.8 in NE 1.6 mph 3.2 mph 57 % 0.0 in
04:40 27.3 °F 17.8 °F 1015.8 in NE 1.6 mph 4.8 mph 56 % 0.0 in
04:50 27.7 °F 17.8 °F 1015.8 in NE 3.2 mph 3.2 mph 55 % 0.0 in
05:00 28.3 °F 18.1 °F 1015.8 in North 1.6 mph 3.2 mph 54 % 0.0 in
10:02 28.7 °F 18.2 °F 1015.8 in NE 1.9 mph 4.7 mph 53 % 0.0 in
10:07 28.3 °F 17.8 °F 1015.8 in East 3.7 mph 3.7 mph 53 % 0.0 in
10:12 28.2 °F 17.4 °F 1015.8 in ESE 7.4 mph 7.4 mph 52 % 0.0 in
10:17 28.1 °F 17.3 °F 1015.8 in SE 7.4 mph 7.4 mph 52 % 0.0 in
10:22 28.5 °F 17.7 °F 1015.8 in ESE 7.4 mph 7.4 mph 52 % 0.0 in
10:27 28.9 °F 18.1 °F 1015.8 in NE 5.6 mph 5.6 mph 52 % 0.0 in
10:32 29.5 °F 18.0 °F 1015.8 in ESE 5.0 mph 5.0 mph 50 % 0.0 in
10:37 29.1 °F 17.6 °F 1015.8 in SSE 3.7 mph 3.7 mph 50 % 0.0 in
10:42 29.1 °F 17.3 °F 1015.8 in NE 4.2 mph 4.2 mph 49 % 0.0 in
10:47 28.9 °F 17.4 °F 1014.8 in NNE 7.4 mph 7.4 mph 50 % 0.0 in
10:52 29.4 °F 17.6 °F 1014.8 in SSE 3.7 mph 3.7 mph 49 % 0.0 in
10:57 29.7 °F 17.8 °F 1014.8 in East 5.3 mph 5.3 mph 49 % 0.0 in
11:02 30.1 °F 17.9 °F 1014.8 in SSW 5.6 mph 5.6 mph 48 % 0.0 in
11:07 30.0 °F 17.8 °F 1014.8 in WSW 4.2 mph 4.2 mph 48 % 0.0 in
11:12 30.9 °F 18.3 °F 1014.8 in South 6.1 mph 6.1 mph 47 % 0.0 in
11:17 31.0 °F 18.0 °F 1014.8 in SW 7.4 mph 7.4 mph 46 % 0.0 in
11:22 31.1 °F 18.1 °F 1014.8 in WNW 4.2 mph 4.2 mph 46 % 0.0 in
11:27 31.7 °F 18.3 °F 1014.8 in SSE 4.2 mph 4.2 mph 45 % 0.0 in
11:32 31.8 °F 18.4 °F 1014.8 in West 7.4 mph 7.4 mph 45 % 0.0 in
11:37 31.7 °F 18.3 °F 1014.8 in SW 5.6 mph 5.6 mph 45 % 0.0 in
11:42 32.0 °F 18.2 °F 1014.8 in West 1.9 mph 1.9 mph 44 % 0.0 in
11:47 32.3 °F 18.5 °F 1014.8 in WSW 5.6 mph 5.6 mph 44 % 0.0 in
11:52 32.5 °F 18.3 °F 1014.8 in NNE 3.7 mph 3.7 mph 43 % 0.0 in
11:57 32.6 °F 18.4 °F 1014.8 in South 7.4 mph 7.4 mph 43 % 0.0 in
12:02 32.3 °F 18.1 °F 1014.8 in SE 9.3 mph 9.3 mph 43 % 0.0 in
12:07 31.9 °F 17.8 °F 1014.8 in NE 9.5 mph 9.5 mph 43 % 0.0 in
12:12 31.9 °F 17.8 °F 1014.8 in ESE 10.3 mph 10.3 mph 43 % 0.0 in
12:18 31.8 °F 17.7 °F 1013.8 in ENE 9.3 mph 9.3 mph 43 % 0.0 in
12:23 32.6 °F 18.4 °F 1013.8 in NE 5.6 mph 5.6 mph 43 % 0.0 in
12:28 32.0 °F 17.8 °F 1013.8 in East 12.2 mph 12.2 mph 43 % 0.0 in
12:33 31.8 °F 17.7 °F 1013.8 in SE 13.0 mph 13.0 mph 43 % 0.0 in
12:38 32.0 °F 17.8 °F 1013.8 in SE 9.5 mph 9.5 mph 43 % 0.0 in
12:43 32.0 °F 17.8 °F 1013.8 in SE 13.0 mph 13.0 mph 43 % 0.0 in
12:48 31.9 °F 17.8 °F 1013.8 in East 10.3 mph 10.3 mph 43 % 0.0 in
12:53 31.4 °F 17.3 °F 1013.8 in West 14.8 mph 14.8 mph 43 % 0.0 in
12:58 31.5 °F 17.4 °F 1013.8 in ESE 13.0 mph 13.0 mph 43 % 0.0 in
13:03 31.9 °F 17.8 °F 1013.8 in ESE 13.0 mph 13.0 mph 43 % 0.0 in
13:08 32.4 °F 18.2 °F 1013.8 in ESE 11.1 mph 11.1 mph 43 % 0.0 in
13:13 31.9 °F 17.8 °F 1013.8 in East 11.1 mph 11.1 mph 43 % 0.0 in
13:18 32.1 °F 17.9 °F 1013.8 in East 18.5 mph 18.5 mph 43 % 0.0 in
13:23 32.1 °F 17.9 °F 1013.8 in ESE 11.1 mph 11.9 mph 43 % 0.0 in
13:28 32.1 °F 17.9 °F 1013.8 in ESE 18.5 mph 18.5 mph 43 % 0.0 in
13:33 32.3 °F 18.1 °F 1013.8 in ESE 16.4 mph 16.4 mph 43 % 0.0 in
13:38 32.2 °F 18.1 °F 1013.8 in ENE 12.6 mph 12.6 mph 43 % 0.0 in
13:43 32.5 °F 18.3 °F 1013.8 in SE 14.8 mph 14.8 mph 43 % 0.0 in
13:48 32.4 °F 18.2 °F 1013.8 in NE 13.7 mph 13.7 mph 43 % 0.0 in
13:53 32.0 °F 17.8 °F 1013.8 in ESE 13.0 mph 13.0 mph 43 % 0.0 in
13:58 32.1 °F 17.6 °F 1013.8 in ESE 13.0 mph 13.0 mph 42 % 0.0 in
14:03 31.8 °F 17.7 °F 1013.8 in ENE 16.7 mph 16.7 mph 43 % 0.0 in
14:08 32.1 °F 17.9 °F 1013.8 in East 16.9 mph 16.9 mph 43 % 0.0 in
14:13 32.0 °F 17.8 °F 1013.8 in ENE 15.8 mph 15.8 mph 43 % 0.0 in
14:18 31.9 °F 18.1 °F 1013.8 in NE 13.0 mph 13.0 mph 44 % 0.0 in
14:23 32.0 °F 18.2 °F 1013.8 in ESE 16.7 mph 16.7 mph 44 % 0.0 in
14:28 32.1 °F 18.3 °F 1013.8 in East 13.0 mph 13.0 mph 44 % 0.0 in
14:33 31.9 °F 18.5 °F 1012.8 in ESE 18.5 mph 18.5 mph 45 % 0.0 in
14:38 32.1 °F 18.3 °F 1012.8 in ESE 18.5 mph 18.5 mph 44 % 0.0 in
14:43 31.8 °F 18.4 °F 1012.8 in East 13.0 mph 13.0 mph 45 % 0.0 in
14:48 31.9 °F 18.5 °F 1012.8 in NE 13.0 mph 13.0 mph 45 % 0.0 in
14:53 31.8 °F 18.8 °F 1012.8 in ESE 14.8 mph 14.8 mph 46 % 0.0 in
14:54 31.7 °F 18.7 °F 1012.8 in East 16.7 mph 16.7 mph 46 % 0.0 in
14:59 31.8 °F 18.8 °F 1012.8 in WNW 9.3 mph 9.3 mph 46 % 0.0 in
15:04 31.9 °F 18.8 °F 1013.8 in ESE 20.4 mph 20.4 mph 46 % 0.0 in
15:09 31.8 °F 18.8 °F 1013.8 in ESE 11.1 mph 11.1 mph 46 % 0.0 in
15:14 31.9 °F 18.8 °F 1013.8 in ENE 16.7 mph 16.7 mph 46 % 0.0 in
15:19 32.0 °F 19.3 °F 1013.8 in ESE 13.0 mph 13.0 mph 47 % 0.0 in
15:24 31.6 °F 19.3 °F 1013.8 in East 22.2 mph 22.2 mph 48 % 0.0 in
15:29 31.8 °F 19.4 °F 1013.8 in ESE 13.0 mph 13.0 mph 48 % 0.0 in
15:34 31.6 °F 18.9 °F 1013.8 in East 18.5 mph 18.5 mph 47 % 0.0 in
15:39 31.5 °F 18.5 °F 1013.8 in NE 13.0 mph 13.0 mph 46 % 0.0 in
15:44 31.9 °F 18.8 °F 1013.8 in ESE 9.3 mph 9.3 mph 46 % 0.0 in
15:49 32.2 °F 18.8 °F 1013.8 in ESE 11.1 mph 11.1 mph 45 % 0.0 in
15:54 31.6 °F 18.2 °F 1013.8 in ENE 18.5 mph 18.5 mph 45 % 0.0 in
15:59 32.0 °F 18.2 °F 1013.8 in ENE 9.7 mph 9.7 mph 44 % 0.0 in
16:04 31.9 °F 18.1 °F 1012.8 in ESE 16.7 mph 16.7 mph 44 % 0.0 in
16:09 31.9 °F 17.8 °F 1012.8 in SSE 14.8 mph 14.8 mph 43 % 0.0 in
16:15 31.6 °F 17.5 °F 1013.8 in NE 13.0 mph 13.0 mph 43 % 0.0 in
16:20 31.5 °F 17.1 °F 1013.8 in ENE 14.8 mph 14.8 mph 42 % 0.0 in
16:25 31.6 °F 17.1 °F 1013.8 in ESE 13.0 mph 13.0 mph 42 % 0.0 in
16:30 31.4 °F 16.9 °F 1013.8 in ESE 14.0 mph 14.0 mph 42 % 0.0 in
16:35 31.2 °F 16.8 °F 1013.8 in ENE 20.9 mph 20.9 mph 42 % 0.0 in
16:40 31.2 °F 17.1 °F 1013.8 in ESE 9.5 mph 9.5 mph 43 % 0.0 in
16:45 31.2 °F 17.1 °F 1013.8 in ENE 16.7 mph 16.7 mph 43 % 0.0 in
16:46 31.2 °F 17.1 °F 1013.8 in ESE 11.9 mph 11.9 mph 43 % 0.0 in
16:51 31.1 °F 17.1 °F 1013.8 in East 11.4 mph 11.4 mph 43 % 0.0 in
16:56 31.0 °F 16.6 °F 1013.8 in NE 13.0 mph 13.0 mph 42 % 0.0 in
17:01 31.1 °F 17.1 °F 1013.8 in ESE 16.7 mph 16.7 mph 43 % 0.0 in
17:06 31.0 °F 16.9 °F 1013.8 in ENE 9.3 mph 9.3 mph 43 % 0.0 in
17:11 30.8 °F 17.1 °F 1013.8 in East 9.3 mph 9.3 mph 44 % 0.0 in
17:16 30.9 °F 17.2 °F 1013.8 in ENE 14.8 mph 14.8 mph 44 % 0.0 in
17:21 30.6 °F 17.3 °F 1013.8 in ESE 20.9 mph 20.9 mph 45 % 0.0 in
17:26 30.4 °F 17.1 °F 1013.8 in SE 14.0 mph 14.0 mph 45 % 0.0 in
17:31 30.1 °F 17.2 °F 1013.8 in ESE 13.0 mph 13.0 mph 46 % 0.0 in
17:36 29.8 °F 17.3 °F 1013.8 in SE 16.7 mph 16.7 mph 47 % 0.0 in
17:41 29.6 °F 17.1 °F 1013.8 in ESE 20.4 mph 20.4 mph 47 % 0.0 in
17:46 29.5 °F 17.3 °F 1013.8 in ENE 9.3 mph 9.3 mph 48 % 0.0 in
17:47 29.5 °F 17.3 °F 1013.8 in NW 15.8 mph 15.8 mph 48 % 0.0 in
17:52 29.5 °F 17.3 °F 1013.8 in NE 9.3 mph 9.3 mph 48 % 0.0 in
17:57 29.3 °F 17.5 °F 1013.8 in ENE 17.5 mph 17.5 mph 49 % 0.0 in
18:02 29.4 °F 17.6 °F 1013.8 in East 11.1 mph 11.1 mph 49 % 0.0 in
18:07 29.5 °F 17.7 °F 1013.8 in SSE 9.3 mph 10.3 mph 49 % 0.0 in
18:12 29.4 °F 17.9 °F 1013.8 in ESE 9.3 mph 9.3 mph 50 % 0.0 in
18:13 29.3 °F 17.8 °F 1013.8 in ENE 16.7 mph 16.7 mph 50 % 0.0 in
18:18 29.2 °F 17.7 °F 1012.8 in SE 11.1 mph 11.1 mph 50 % 0.0 in
18:23 29.3 °F 17.8 °F 1012.8 in ESE 13.7 mph 13.7 mph 50 % 0.0 in
18:28 29.0 °F 17.5 °F 1012.8 in East 11.1 mph 11.1 mph 50 % 0.0 in
18:33 28.9 °F 18.1 °F 1012.8 in ENE 14.8 mph 14.8 mph 52 % 0.0 in
18:38 28.9 °F 18.1 °F 1012.8 in ENE 9.3 mph 9.3 mph 52 % 0.0 in
18:43 28.8 °F 17.9 °F 1012.8 in ENE 13.0 mph 13.0 mph 52 % 0.0 in
18:48 28.7 °F 17.9 °F 1012.8 in East 12.2 mph 12.2 mph 52 % 0.0 in
18:53 28.7 °F 17.9 °F 1012.8 in East 11.1 mph 11.1 mph 52 % 0.0 in
18:58 28.5 °F 17.7 °F 1012.8 in ESE 16.7 mph 16.7 mph 52 % 0.0 in
18:59 28.4 °F 17.6 °F 1012.8 in East 16.7 mph 16.7 mph 52 % 0.0 in
19:04 28.4 °F 17.6 °F 1012.8 in ENE 11.1 mph 11.1 mph 52 % 0.0 in
19:09 28.5 °F 17.7 °F 1012.8 in NNE 13.0 mph 13.0 mph 52 % 0.0 in
19:14 28.3 °F 17.5 °F 1012.8 in ESE 14.8 mph 14.8 mph 52 % 0.0 in
19:19 28.3 °F 17.5 °F 1012.8 in North 7.4 mph 7.4 mph 52 % 0.0 in
19:20 24.1 °F 18.1 °F 1013.8 in SW 1.6 mph 1.6 mph 69 % 0.0 in
19:24 28.2 °F 17.4 °F 1012.8 in East 13.0 mph 13.0 mph 52 % 0.0 in
19:29 28.1 °F 17.6 °F 1012.8 in ENE 13.0 mph 13.0 mph 53 % 0.0 in
19:30 24.0 °F 17.9 °F 1013.8 in SW 1.6 mph 1.6 mph 69 % 0.0 in
19:34 28.2 °F 17.7 °F 1012.8 in East 7.4 mph 7.4 mph 53 % 0.0 in
19:39 28.2 °F 17.7 °F 1012.8 in East 11.1 mph 11.1 mph 53 % 0.0 in
19:40 24.0 °F 18.2 °F 1013.8 in Calm   3.2 mph 70 % 0.0 in
19:44 28.0 °F 17.8 °F 1012.8 in ESE 5.6 mph 5.6 mph 54 % 0.0 in
19:49 28.0 °F 17.8 °F 1012.8 in ENE 13.0 mph 13.0 mph 54 % 0.0 in
19:50 23.8 °F 18.2 °F 1013.8 in SW 1.6 mph 3.2 mph 71 % 0.0 in
19:54 28.0 °F 17.8 °F 1012.8 in ESE 11.1 mph 11.1 mph 54 % 0.0 in
19:59 27.9 °F 17.7 °F 1012.8 in SSE 5.6 mph 5.6 mph 54 % 0.0 in
20:00 23.6 °F 18.1 °F 1013.8 in SW 1.6 mph 3.2 mph 71 % 0.0 in
20:04 27.9 °F 17.7 °F 1013.8 in ESE 9.3 mph 9.3 mph 54 % 0.0 in
20:09 27.8 °F 17.9 °F 1013.8 in ESE 9.5 mph 9.5 mph 55 % 0.0 in
20:10 23.5 °F 18.2 °F 1013.8 in SW 1.6 mph 3.2 mph 72 % 0.0 in
20:14 27.8 °F 17.9 °F 1013.8 in East 10.0 mph 10.0 mph 55 % 0.0 in
20:19 27.7 °F 17.8 °F 1013.8 in NE 10.3 mph 10.3 mph 55 % 0.0 in
20:20 23.4 °F 18.1 °F 1013.8 in SW 3.2 mph 3.2 mph 72 % 0.0 in
20:24 27.6 °F 17.7 °F 1013.8 in ESE 7.9 mph 7.9 mph 55 % 0.0 in
20:29 27.5 °F 17.7 °F 1013.8 in ESE 9.3 mph 9.3 mph 55 % 0.0 in
20:30 23.3 °F 18.2 °F 1013.8 in SW 1.6 mph 3.2 mph 73 % 0.0 in
20:34 27.4 °F 17.6 °F 1013.8 in NE 7.4 mph 7.4 mph 55 % 0.0 in
20:39 27.3 °F 17.4 °F 1013.8 in ENE 6.1 mph 6.1 mph 55 % 0.0 in
20:40 23.3 °F 18.2 °F 1014.8 in WSW 3.2 mph 4.8 mph 73 % 0.0 in
20:44 27.3 °F 17.8 °F 1013.8 in NE 5.6 mph 5.6 mph 56 % 0.0 in
20:49 27.3 °F 17.8 °F 1012.8 in ESE 3.9 mph 3.9 mph 56 % 0.0 in
20:50 23.2 °F 18.3 °F 1014.8 in WSW 1.6 mph 3.2 mph 74 % 0.0 in
20:54 27.3 °F 17.8 °F 1012.8 in SE 4.2 mph 4.2 mph 56 % 0.0 in
20:59 27.2 °F 17.7 °F 1012.8 in East 3.9 mph 3.9 mph 56 % 0.0 in
21:00 23.1 °F 18.4 °F 1013.8 in SW 1.6 mph 3.2 mph 75 % 0.0 in
21:04 27.1 °F 17.6 °F 1013.8 in WSW 3.7 mph 3.7 mph 56 % 0.0 in
21:09 27.1 °F 17.6 °F 1013.8 in WSW 3.7 mph 3.7 mph 56 % 0.0 in
21:10 23.0 °F 18.3 °F 1013.8 in SW 1.6 mph 3.2 mph 75 % 0.0 in
21:14 27.1 °F 17.6 °F 1013.8 in Calm     56 % 0.0 in
21:19 27.0 °F 17.5 °F 1013.8 in SSE 1.9 mph   56 % 0.0 in
21:20 22.9 °F 18.7 °F 1013.8 in SW 1.6 mph 3.2 mph 77 % 0.0 in
21:24 27.0 °F 17.5 °F 1013.8 in WSW 1.9 mph   56 % 0.0 in
21:29 26.9 °F 17.7 °F 1013.8 in WSW 1.9 mph   57 % 0.0 in
21:30 22.9 °F 18.7 °F 1013.8 in WSW 1.6 mph 3.2 mph 77 % 0.0 in
21:34 26.9 °F 17.7 °F 1012.8 in WSW 5.6 mph 5.6 mph 57 % 0.0 in
21:39 26.8 °F 17.8 °F 1012.8 in WSW 3.7 mph 3.7 mph 58 % 0.0 in
21:40 22.8 °F 18.9 °F 1013.8 in Calm   3.2 mph 79 % 0.0 in
21:44 26.6 °F 17.9 °F 1012.8 in SW 3.7 mph 3.7 mph 59 % 0.0 in
21:49 26.6 °F 18.2 °F 1013.8 in SW 3.9 mph 3.9 mph 60 % 0.0 in
21:50 22.7 °F 18.9 °F 1013.8 in Calm   3.2 mph 79 % 0.0 in
21:54 26.4 °F 18.0 °F 1013.8 in SW 2.6 mph 2.6 mph 60 % 0.0 in
21:59 26.3 °F 18.2 °F 1013.8 in SW 3.7 mph 3.7 mph 61 % 0.0 in
22:00 22.7 °F 19.1 °F 1013.8 in Calm     80 % 0.0 in
22:04 26.2 °F 18.1 °F 1013.8 in WNW 3.7 mph 3.7 mph 61 % 0.0 in
22:09 26.1 °F 18.2 °F 1013.8 in SW 3.7 mph 3.7 mph 62 % 0.0 in
22:10 22.4 °F 18.8 °F 1013.8 in Calm   3.2 mph 80 % 0.0 in
22:14 25.9 °F 18.3 °F 1013.8 in SW 3.7 mph 3.7 mph 63 % 0.0 in
22:19 25.8 °F 18.2 °F 1012.8 in SW 7.4 mph 7.4 mph 63 % 0.0 in
22:20 22.2 °F 18.6 °F 1013.8 in Calm     80 % 0.0 in
22:24 25.7 °F 18.4 °F 1012.8 in SSW 3.7 mph 3.7 mph 64 % 0.0 in
22:29 25.6 °F 18.3 °F 1012.8 in SW 3.9 mph 3.9 mph 64 % 0.0 in
22:30 22.0 °F 18.2 °F 1013.8 in Calm     79 % 0.0 in
22:34 25.5 °F 18.4 °F 1013.8 in SW 3.7 mph 3.7 mph 65 % 0.0 in
22:39 25.5 °F 18.4 °F 1013.8 in SW 3.7 mph 3.7 mph 65 % 0.0 in
22:40 21.9 °F 18.1 °F 1013.8 in Calm     79 % 0.0 in
22:44 25.3 °F 18.2 °F 1013.8 in SW 3.7 mph 3.7 mph 65 % 0.0 in
22:49 25.2 °F 18.2 °F 1013.8 in WSW 5.0 mph 5.0 mph 65 % 0.0 in
22:50 21.9 °F 18.1 °F 1013.8 in Calm   1.6 mph 79 % 0.0 in
22:54 25.1 °F 18.3 °F 1013.8 in WSW 3.7 mph 3.7 mph 66 % 0.0 in
22:59 25.0 °F 18.2 °F 1013.8 in WSW 1.9 mph 1.9 mph 66 % 0.0 in
23:00 21.8 °F 18.2 °F 1013.8 in Calm   1.6 mph 80 % 0.0 in
23:04 25.0 °F 18.2 °F 1013.8 in WSW 3.9 mph 3.9 mph 66 % 0.0 in
23:09 24.9 °F 18.3 °F 1013.8 in WSW 3.7 mph 3.7 mph 67 % 0.0 in
23:10 21.7 °F 18.3 °F 1012.8 in Calm     81 % 0.0 in
23:14 24.9 °F 18.3 °F 1013.8 in SSW 4.7 mph 4.7 mph 67 % 0.0 in
23:19 24.9 °F 18.3 °F 1013.8 in WSW 5.6 mph 5.6 mph 67 % 0.0 in
23:20 21.6 °F 18.2 °F 1012.8 in Calm     81 % 0.0 in
23:24 24.8 °F 18.3 °F 1013.8 in SW 5.6 mph 5.6 mph 67 % 0.0 in
23:29 24.7 °F 18.2 °F 1013.8 in SW 5.6 mph 5.6 mph 67 % 0.0 in
23:30 21.5 °F 18.3 °F 1013.8 in SE 1.6 mph 1.6 mph 82 % 0.0 in
23:34 24.6 °F 18.3 °F 1013.8 in SW 4.2 mph 4.2 mph 68 % 0.0 in
23:39 24.5 °F 18.2 °F 1013.8 in SW 3.7 mph 3.7 mph 68 % 0.0 in
23:40 21.5 °F 18.3 °F 1013.8 in Calm     82 % 0.0 in
23:44 24.5 °F 18.2 °F 1013.8 in WSW 5.6 mph 5.6 mph 68 % 0.0 in
23:49 24.4 °F 18.1 °F 1013.8 in SW 6.4 mph 6.4 mph 68 % 0.0 in
23:50 21.5 °F 18.3 °F 1013.8 in East 1.6 mph 3.2 mph 82 % 0.0 in
23:54 24.4 °F 18.1 °F 1013.8 in WSW 3.7 mph 3.7 mph 68 % 0.0 in
23:59 24.3 °F 18.0 °F 1013.8 in SW 3.7 mph 3.7 mph 68 % 0.0 in
Meteo Sesrovires
Elogis d' Weather Underground - 1.5 mb

Guio original per  Jim McMurry - jmcmurry@mwt.net Adaptat per a la plantilla per  Wim van der Kuil - Leuven-Template.eu

Trobareu la nostra informacio del temps tambe a:

Weather Underground

AWEKAS